sensor_id;sensor_type;location;lat;lon;timestamp;P1;durP1;ratioP1;P2;durP2;ratioP2
37855;SDS011;23694;43.274;26.924;2023-02-03T00:00:34;7.17;;;3.53;;
37855;SDS011;23694;43.274;26.924;2023-02-03T00:03:01;5.57;;;2.67;;
37855;SDS011;23694;43.274;26.924;2023-02-03T00:05:27;8.30;;;3.57;;
37855;SDS011;23694;43.274;26.924;2023-02-03T00:07:54;6.40;;;2.90;;
37855;SDS011;23694;43.274;26.924;2023-02-03T00:10:20;5.90;;;3.20;;
37855;SDS011;23694;43.274;26.924;2023-02-03T00:12:47;4.10;;;2.77;;
37855;SDS011;23694;43.274;26.924;2023-02-03T00:15:15;5.70;;;3.33;;
37855;SDS011;23694;43.274;26.924;2023-02-03T00:17:41;6.00;;;3.60;;
37855;SDS011;23694;43.274;26.924;2023-02-03T00:20:07;5.83;;;2.93;;
37855;SDS011;23694;43.274;26.924;2023-02-03T00:22:34;4.97;;;3.17;;
37855;SDS011;23694;43.274;26.924;2023-02-03T00:25:00;8.23;;;3.53;;
37855;SDS011;23694;43.274;26.924;2023-02-03T00:27:26;7.13;;;3.23;;
37855;SDS011;23694;43.274;26.924;2023-02-03T00:29:52;5.37;;;3.10;;
37855;SDS011;23694;43.274;26.924;2023-02-03T00:32:18;5.83;;;2.93;;
37855;SDS011;23694;43.274;26.924;2023-02-03T00:34:44;5.77;;;3.27;;
37855;SDS011;23694;43.274;26.924;2023-02-03T00:37:11;4.83;;;3.37;;
37855;SDS011;23694;43.274;26.924;2023-02-03T00:39:37;7.63;;;3.17;;
37855;SDS011;23694;43.274;26.924;2023-02-03T00:42:04;4.87;;;3.10;;
37855;SDS011;23694;43.274;26.924;2023-02-03T00:44:30;4.57;;;2.80;;
37855;SDS011;23694;43.274;26.924;2023-02-03T00:46:56;6.30;;;3.03;;
37855;SDS011;23694;43.274;26.924;2023-02-03T00:49:23;6.27;;;2.90;;
37855;SDS011;23694;43.274;26.924;2023-02-03T00:51:49;7.07;;;2.97;;
37855;SDS011;23694;43.274;26.924;2023-02-03T00:54:15;5.03;;;3.37;;
37855;SDS011;23694;43.274;26.924;2023-02-03T00:56:42;6.00;;;3.13;;
37855;SDS011;23694;43.274;26.924;2023-02-03T00:59:08;4.97;;;2.70;;
37855;SDS011;23694;43.274;26.924;2023-02-03T01:01:34;4.60;;;3.13;;
37855;SDS011;23694;43.274;26.924;2023-02-03T01:04:01;5.00;;;3.10;;
37855;SDS011;23694;43.274;26.924;2023-02-03T01:06:27;6.70;;;3.37;;
37855;SDS011;23694;43.274;26.924;2023-02-03T01:08:53;6.03;;;3.00;;
37855;SDS011;23694;43.274;26.924;2023-02-03T01:11:21;6.37;;;3.07;;
37855;SDS011;23694;43.274;26.924;2023-02-03T01:13:53;6.17;;;3.47;;
37855;SDS011;23694;43.274;26.924;2023-02-03T01:16:21;7.80;;;3.30;;
37855;SDS011;23694;43.274;26.924;2023-02-03T01:18:49;5.37;;;3.27;;
37855;SDS011;23694;43.274;26.924;2023-02-03T01:21:16;6.53;;;3.00;;
37855;SDS011;23694;43.274;26.924;2023-02-03T01:23:49;5.57;;;3.23;;
37855;SDS011;23694;43.274;26.924;2023-02-03T01:26:16;6.10;;;3.77;;
37855;SDS011;23694;43.274;26.924;2023-02-03T01:28:49;5.43;;;3.10;;
37855;SDS011;23694;43.274;26.924;2023-02-03T01:31:21;6.33;;;2.97;;
37855;SDS011;23694;43.274;26.924;2023-02-03T01:33:50;5.83;;;3.17;;
37855;SDS011;23694;43.274;26.924;2023-02-03T01:36:19;7.83;;;3.50;;
37855;SDS011;23694;43.274;26.924;2023-02-03T01:38:46;6.00;;;3.63;;
37855;SDS011;23694;43.274;26.924;2023-02-03T01:41:14;6.20;;;3.53;;
37855;SDS011;23694;43.274;26.924;2023-02-03T01:43:43;5.47;;;3.00;;
37855;SDS011;23694;43.274;26.924;2023-02-03T01:48:50;7.07;;;2.93;;
37855;SDS011;23694;43.274;26.924;2023-02-03T01:51:18;3.57;;;2.50;;
37855;SDS011;23694;43.274;26.924;2023-02-03T01:53:46;4.63;;;2.70;;
37855;SDS011;23694;43.274;26.924;2023-02-03T01:56:14;6.33;;;3.30;;
37855;SDS011;23694;43.274;26.924;2023-02-03T01:58:41;7.53;;;2.80;;
37855;SDS011;23694;43.274;26.924;2023-02-03T02:01:10;6.57;;;3.47;;
37855;SDS011;23694;43.274;26.924;2023-02-03T02:03:40;6.33;;;3.13;;
37855;SDS011;23694;43.274;26.924;2023-02-03T02:06:12;4.37;;;2.67;;
37855;SDS011;23694;43.274;26.924;2023-02-03T02:08:39;5.00;;;2.93;;
37855;SDS011;23694;43.274;26.924;2023-02-03T02:11:08;7.40;;;3.00;;
37855;SDS011;23694;43.274;26.924;2023-02-03T02:13:35;7.27;;;3.17;;
37855;SDS011;23694;43.274;26.924;2023-02-03T02:18:55;4.93;;;3.03;;
37855;SDS011;23694;43.274;26.924;2023-02-03T02:32:24;5.57;;;2.87;;
37855;SDS011;23694;43.274;26.924;2023-02-03T02:37:51;5.23;;;3.07;;
37855;SDS011;23694;43.274;26.924;2023-02-03T02:40:30;6.57;;;3.47;;
37855;SDS011;23694;43.274;26.924;2023-02-03T02:43:09;5.07;;;2.63;;
37855;SDS011;23694;43.274;26.924;2023-02-03T02:45:47;4.80;;;3.00;;
37855;SDS011;23694;43.274;26.924;2023-02-03T02:48:19;7.17;;;2.80;;
37855;SDS011;23694;43.274;26.924;2023-02-03T02:51:08;4.72;;;2.58;;
37855;SDS011;23694;43.274;26.924;2023-02-03T02:53:39;7.60;;;3.67;;
37855;SDS011;23694;43.274;26.924;2023-02-03T02:56:10;7.83;;;3.43;;
37855;SDS011;23694;43.274;26.924;2023-02-03T02:58:40;3.77;;;2.73;;
37855;SDS011;23694;43.274;26.924;2023-02-03T03:01:09;4.70;;;2.80;;
37855;SDS011;23694;43.274;26.924;2023-02-03T03:03:36;4.90;;;2.77;;
37855;SDS011;23694;43.274;26.924;2023-02-03T03:06:10;7.47;;;3.10;;
37855;SDS011;23694;43.274;26.924;2023-02-03T03:11:09;5.63;;;2.70;;
37855;SDS011;23694;43.274;26.924;2023-02-03T03:13:41;6.53;;;2.73;;
37855;SDS011;23694;43.274;26.924;2023-02-03T03:16:12;6.20;;;3.13;;
37855;SDS011;23694;43.274;26.924;2023-02-03T03:18:43;4.87;;;2.80;;
37855;SDS011;23694;43.274;26.924;2023-02-03T03:21:21;5.57;;;2.80;;
37855;SDS011;23694;43.274;26.924;2023-02-03T03:23:50;5.30;;;2.80;;
37855;SDS011;23694;43.274;26.924;2023-02-03T03:26:20;7.50;;;2.93;;
37855;SDS011;23694;43.274;26.924;2023-02-03T03:31:46;6.30;;;2.87;;
37855;SDS011;23694;43.274;26.924;2023-02-03T03:34:12;6.17;;;2.93;;
37855;SDS011;23694;43.274;26.924;2023-02-03T03:36:47;8.37;;;3.40;;
37855;SDS011;23694;43.274;26.924;2023-02-03T03:47:46;6.23;;;3.00;;
37855;SDS011;23694;43.274;26.924;2023-02-03T03:50:31;6.00;;;2.87;;
37855;SDS011;23694;43.274;26.924;2023-02-03T03:53:01;5.33;;;3.17;;
37855;SDS011;23694;43.274;26.924;2023-02-03T03:55:29;8.10;;;3.00;;
37855;SDS011;23694;43.274;26.924;2023-02-03T03:58:02;5.73;;;2.90;;
37855;SDS011;23694;43.274;26.924;2023-02-03T04:00:29;5.85;;;1.75;;
37855;SDS011;23694;43.274;26.924;2023-02-03T04:03:00;4.63;;;3.07;;
37855;SDS011;23694;43.274;26.924;2023-02-03T04:05:31;6.35;;;3.00;;
37855;SDS011;23694;43.274;26.924;2023-02-03T04:07:58;4.23;;;3.00;;
37855;SDS011;23694;43.274;26.924;2023-02-03T04:10:28;6.13;;;2.73;;
37855;SDS011;23694;43.274;26.924;2023-02-03T04:12:57;6.20;;;2.47;;
37855;SDS011;23694;43.274;26.924;2023-02-03T04:15:23;12.70;;;7.03;;
37855;SDS011;23694;43.274;26.924;2023-02-03T04:17:49;10.67;;;5.07;;
37855;SDS011;23694;43.274;26.924;2023-02-03T04:20:15;11.70;;;6.20;;
37855;SDS011;23694;43.274;26.924;2023-02-03T04:22:42;20.70;;;8.77;;
37855;SDS011;23694;43.274;26.924;2023-02-03T04:25:08;21.40;;;7.53;;
37855;SDS011;23694;43.274;26.924;2023-02-03T04:27:34;14.97;;;8.60;;
37855;SDS011;23694;43.274;26.924;2023-02-03T04:30:01;14.87;;;7.90;;
37855;SDS011;23694;43.274;26.924;2023-02-03T04:32:27;12.57;;;6.13;;
37855;SDS011;23694;43.274;26.924;2023-02-03T04:34:53;7.87;;;3.93;;
37855;SDS011;23694;43.274;26.924;2023-02-03T04:37:19;4.33;;;2.93;;
37855;SDS011;23694;43.274;26.924;2023-02-03T04:39:48;6.53;;;3.30;;
37855;SDS011;23694;43.274;26.924;2023-02-03T04:42:17;9.67;;;4.30;;
37855;SDS011;23694;43.274;26.924;2023-02-03T04:44:43;7.87;;;3.43;;
37855;SDS011;23694;43.274;26.924;2023-02-03T04:47:09;8.87;;;4.83;;
37855;SDS011;23694;43.274;26.924;2023-02-03T04:49:35;8.23;;;4.43;;
37855;SDS011;23694;43.274;26.924;2023-02-03T04:52:02;12.10;;;5.20;;
37855;SDS011;23694;43.274;26.924;2023-02-03T04:54:28;11.80;;;5.20;;
37855;SDS011;23694;43.274;26.924;2023-02-03T04:56:54;10.30;;;4.97;;
37855;SDS011;23694;43.274;26.924;2023-02-03T04:59:20;8.37;;;4.30;;
37855;SDS011;23694;43.274;26.924;2023-02-03T05:01:46;33.10;;;17.90;;
37855;SDS011;23694;43.274;26.924;2023-02-03T05:04:14;18.93;;;10.63;;
37855;SDS011;23694;43.274;26.924;2023-02-03T05:06:40;12.83;;;4.27;;
37855;SDS011;23694;43.274;26.924;2023-02-03T05:09:06;10.07;;;4.20;;
37855;SDS011;23694;43.274;26.924;2023-02-03T05:11:32;7.57;;;4.13;;
37855;SDS011;23694;43.274;26.924;2023-02-03T05:13:59;11.67;;;4.47;;
37855;SDS011;23694;43.274;26.924;2023-02-03T05:16:25;11.17;;;6.67;;
37855;SDS011;23694;43.274;26.924;2023-02-03T05:18:51;14.13;;;6.30;;
37855;SDS011;23694;43.274;26.924;2023-02-03T05:21:17;20.20;;;10.47;;
37855;SDS011;23694;43.274;26.924;2023-02-03T05:23:43;14.20;;;7.27;;
37855;SDS011;23694;43.274;26.924;2023-02-03T05:26:09;9.77;;;4.97;;
37855;SDS011;23694;43.274;26.924;2023-02-03T05:28:36;13.17;;;6.33;;
37855;SDS011;23694;43.274;26.924;2023-02-03T05:31:02;24.80;;;12.33;;
37855;SDS011;23694;43.274;26.924;2023-02-03T05:33:28;12.63;;;5.13;;
37855;SDS011;23694;43.274;26.924;2023-02-03T05:35:55;7.67;;;5.50;;
37855;SDS011;23694;43.274;26.924;2023-02-03T05:38:21;7.33;;;4.00;;
37855;SDS011;23694;43.274;26.924;2023-02-03T05:40:48;8.17;;;4.10;;
37855;SDS011;23694;43.274;26.924;2023-02-03T05:43:33;9.07;;;4.50;;
37855;SDS011;23694;43.274;26.924;2023-02-03T05:46:00;7.27;;;4.23;;
37855;SDS011;23694;43.274;26.924;2023-02-03T05:48:27;6.87;;;4.60;;
37855;SDS011;23694;43.274;26.924;2023-02-03T05:50:53;12.70;;;9.30;;
37855;SDS011;23694;43.274;26.924;2023-02-03T05:53:19;13.10;;;10.40;;
37855;SDS011;23694;43.274;26.924;2023-02-03T05:55:45;15.93;;;8.70;;
37855;SDS011;23694;43.274;26.924;2023-02-03T05:58:12;13.23;;;6.00;;
37855;SDS011;23694;43.274;26.924;2023-02-03T06:00:38;7.20;;;4.00;;
37855;SDS011;23694;43.274;26.924;2023-02-03T06:03:04;8.23;;;3.93;;
37855;SDS011;23694;43.274;26.924;2023-02-03T06:05:31;6.27;;;3.47;;
37855;SDS011;23694;43.274;26.924;2023-02-03T06:07:58;7.13;;;3.90;;
37855;SDS011;23694;43.274;26.924;2023-02-03T06:10:25;7.77;;;4.70;;
37855;SDS011;23694;43.274;26.924;2023-02-03T06:12:52;6.63;;;3.63;;
37855;SDS011;23694;43.274;26.924;2023-02-03T06:15:18;7.03;;;3.60;;
37855;SDS011;23694;43.274;26.924;2023-02-03T06:17:45;4.57;;;3.03;;
37855;SDS011;23694;43.274;26.924;2023-02-03T06:20:13;5.77;;;3.80;;
37855;SDS011;23694;43.274;26.924;2023-02-03T06:22:41;7.83;;;3.83;;
37855;SDS011;23694;43.274;26.924;2023-02-03T06:25:08;7.80;;;3.90;;
37855;SDS011;23694;43.274;26.924;2023-02-03T06:27:34;7.27;;;4.50;;
37855;SDS011;23694;43.274;26.924;2023-02-03T06:30:01;7.37;;;3.50;;
37855;SDS011;23694;43.274;26.924;2023-02-03T06:32:27;6.07;;;4.20;;
37855;SDS011;23694;43.274;26.924;2023-02-03T06:34:53;7.87;;;4.70;;
37855;SDS011;23694;43.274;26.924;2023-02-03T06:37:19;8.10;;;4.67;;
37855;SDS011;23694;43.274;26.924;2023-02-03T06:39:45;6.90;;;4.60;;
37855;SDS011;23694;43.274;26.924;2023-02-03T06:42:11;6.83;;;4.10;;
37855;SDS011;23694;43.274;26.924;2023-02-03T06:44:37;6.93;;;4.37;;
37855;SDS011;23694;43.274;26.924;2023-02-03T06:47:03;5.20;;;3.90;;
37855;SDS011;23694;43.274;26.924;2023-02-03T06:49:29;7.20;;;4.20;;
37855;SDS011;23694;43.274;26.924;2023-02-03T06:51:55;6.53;;;3.70;;
37855;SDS011;23694;43.274;26.924;2023-02-03T06:54:22;11.43;;;6.13;;
37855;SDS011;23694;43.274;26.924;2023-02-03T06:56:48;7.87;;;4.17;;
37855;SDS011;23694;43.274;26.924;2023-02-03T06:59:14;7.07;;;3.80;;
37855;SDS011;23694;43.274;26.924;2023-02-03T07:01:40;6.10;;;4.50;;
37855;SDS011;23694;43.274;26.924;2023-02-03T07:04:06;5.50;;;3.60;;
37855;SDS011;23694;43.274;26.924;2023-02-03T07:06:32;6.93;;;3.97;;
37855;SDS011;23694;43.274;26.924;2023-02-03T07:08:59;6.47;;;3.53;;
37855;SDS011;23694;43.274;26.924;2023-02-03T07:11:26;8.13;;;4.20;;
37855;SDS011;23694;43.274;26.924;2023-02-03T07:13:53;6.67;;;3.53;;
37855;SDS011;23694;43.274;26.924;2023-02-03T07:16:20;6.30;;;3.73;;
37855;SDS011;23694;43.274;26.924;2023-02-03T07:18:47;5.20;;;3.17;;
37855;SDS011;23694;43.274;26.924;2023-02-03T07:21:13;6.20;;;3.37;;
37855;SDS011;23694;43.274;26.924;2023-02-03T07:23:40;6.53;;;3.20;;
37855;SDS011;23694;43.274;26.924;2023-02-03T07:26:06;5.20;;;3.60;;
37855;SDS011;23694;43.274;26.924;2023-02-03T07:28:33;5.17;;;3.33;;
37855;SDS011;23694;43.274;26.924;2023-02-03T07:31:00;7.23;;;3.97;;
37855;SDS011;23694;43.274;26.924;2023-02-03T07:33:27;7.73;;;3.40;;
37855;SDS011;23694;43.274;26.924;2023-02-03T07:35:53;6.67;;;3.83;;
37855;SDS011;23694;43.274;26.924;2023-02-03T07:38:20;9.70;;;5.33;;
37855;SDS011;23694;43.274;26.924;2023-02-03T07:40:47;9.60;;;4.20;;
37855;SDS011;23694;43.274;26.924;2023-02-03T07:43:13;5.60;;;3.70;;
37855;SDS011;23694;43.274;26.924;2023-02-03T07:45:39;8.17;;;4.17;;
37855;SDS011;23694;43.274;26.924;2023-02-03T07:48:06;8.17;;;5.00;;
37855;SDS011;23694;43.274;26.924;2023-02-03T07:50:32;8.07;;;4.30;;
37855;SDS011;23694;43.274;26.924;2023-02-03T07:52:58;8.03;;;4.37;;
37855;SDS011;23694;43.274;26.924;2023-02-03T07:55:25;9.00;;;4.70;;
37855;SDS011;23694;43.274;26.924;2023-02-03T07:57:52;8.57;;;4.20;;
37855;SDS011;23694;43.274;26.924;2023-02-03T08:00:19;6.97;;;4.20;;
37855;SDS011;23694;43.274;26.924;2023-02-03T08:02:46;6.37;;;3.70;;
37855;SDS011;23694;43.274;26.924;2023-02-03T08:05:12;5.60;;;3.57;;
37855;SDS011;23694;43.274;26.924;2023-02-03T08:07:38;7.60;;;4.27;;
37855;SDS011;23694;43.274;26.924;2023-02-03T08:10:05;9.93;;;4.07;;
37855;SDS011;23694;43.274;26.924;2023-02-03T08:12:33;8.30;;;3.97;;
37855;SDS011;23694;43.274;26.924;2023-02-03T08:14:59;5.97;;;3.30;;
37855;SDS011;23694;43.274;26.924;2023-02-03T08:17:25;8.37;;;4.17;;
37855;SDS011;23694;43.274;26.924;2023-02-03T08:19:51;7.17;;;4.67;;
37855;SDS011;23694;43.274;26.924;2023-02-03T08:22:17;5.77;;;3.67;;
37855;SDS011;23694;43.274;26.924;2023-02-03T08:24:44;5.83;;;3.93;;
37855;SDS011;23694;43.274;26.924;2023-02-03T08:27:11;7.70;;;4.27;;
37855;SDS011;23694;43.274;26.924;2023-02-03T08:29:38;10.13;;;4.97;;
37855;SDS011;23694;43.274;26.924;2023-02-03T08:32:07;8.30;;;4.43;;
37855;SDS011;23694;43.274;26.924;2023-02-03T08:34:35;6.67;;;3.83;;
37855;SDS011;23694;43.274;26.924;2023-02-03T08:37:01;6.33;;;4.33;;
37855;SDS011;23694;43.274;26.924;2023-02-03T08:39:27;9.93;;;5.00;;
37855;SDS011;23694;43.274;26.924;2023-02-03T08:41:54;10.10;;;5.00;;
37855;SDS011;23694;43.274;26.924;2023-02-03T08:44:20;8.37;;;4.33;;
37855;SDS011;23694;43.274;26.924;2023-02-03T08:46:49;7.90;;;4.80;;
37855;SDS011;23694;43.274;26.924;2023-02-03T08:49:16;11.43;;;5.43;;
37855;SDS011;23694;43.274;26.924;2023-02-03T08:51:46;8.37;;;4.60;;
37855;SDS011;23694;43.274;26.924;2023-02-03T08:54:13;9.80;;;6.73;;
37855;SDS011;23694;43.274;26.924;2023-02-03T08:56:40;9.00;;;5.23;;
37855;SDS011;23694;43.274;26.924;2023-02-03T08:59:06;10.63;;;5.97;;
37855;SDS011;23694;43.274;26.924;2023-02-03T09:01:32;15.50;;;6.63;;
37855;SDS011;23694;43.274;26.924;2023-02-03T09:03:58;9.73;;;6.37;;
37855;SDS011;23694;43.274;26.924;2023-02-03T09:06:29;11.83;;;6.90;;
37855;SDS011;23694;43.274;26.924;2023-02-03T09:08:55;7.77;;;4.60;;
37855;SDS011;23694;43.274;26.924;2023-02-03T09:11:21;9.97;;;5.80;;
37855;SDS011;23694;43.274;26.924;2023-02-03T09:13:48;9.43;;;6.23;;
37855;SDS011;23694;43.274;26.924;2023-02-03T09:16:15;5.60;;;3.60;;
37855;SDS011;23694;43.274;26.924;2023-02-03T09:18:43;10.50;;;4.17;;
37855;SDS011;23694;43.274;26.924;2023-02-03T09:21:10;6.17;;;3.87;;
37855;SDS011;23694;43.274;26.924;2023-02-03T09:23:37;5.97;;;4.43;;
37855;SDS011;23694;43.274;26.924;2023-02-03T09:26:06;7.27;;;4.37;;
37855;SDS011;23694;43.274;26.924;2023-02-03T09:28:33;8.90;;;5.03;;
37855;SDS011;23694;43.274;26.924;2023-02-03T09:31:00;9.70;;;4.90;;
37855;SDS011;23694;43.274;26.924;2023-02-03T09:33:28;8.93;;;4.50;;
37855;SDS011;23694;43.274;26.924;2023-02-03T09:35:55;8.13;;;5.07;;
37855;SDS011;23694;43.274;26.924;2023-02-03T09:38:22;7.17;;;4.13;;
37855;SDS011;23694;43.274;26.924;2023-02-03T09:40:50;7.97;;;4.87;;
37855;SDS011;23694;43.274;26.924;2023-02-03T09:43:23;10.23;;;5.30;;
37855;SDS011;23694;43.274;26.924;2023-02-03T09:46:02;8.80;;;4.93;;
37855;SDS011;23694;43.274;26.924;2023-02-03T09:48:51;11.50;;;5.37;;
37855;SDS011;23694;43.274;26.924;2023-02-03T09:51:25;8.73;;;4.97;;
37855;SDS011;23694;43.274;26.924;2023-02-03T09:53:59;8.90;;;5.87;;
37855;SDS011;23694;43.274;26.924;2023-02-03T09:56:31;12.00;;;6.13;;
37855;SDS011;23694;43.274;26.924;2023-02-03T09:58:59;9.90;;;5.10;;
37855;SDS011;23694;43.274;26.924;2023-02-03T10:07:23;6.90;;;4.60;;
37855;SDS011;23694;43.274;26.924;2023-02-03T10:15:55;7.67;;;4.90;;
37855;SDS011;23694;43.274;26.924;2023-02-03T10:18:31;4.80;;;3.57;;
37855;SDS011;23694;43.274;26.924;2023-02-03T10:21:18;9.40;;;4.50;;
37855;SDS011;23694;43.274;26.924;2023-02-03T10:23:54;10.50;;;4.90;;
37855;SDS011;23694;43.274;26.924;2023-02-03T10:26:25;7.67;;;4.40;;
37855;SDS011;23694;43.274;26.924;2023-02-03T10:28:56;9.47;;;4.83;;
37855;SDS011;23694;43.274;26.924;2023-02-03T10:31:27;10.40;;;5.03;;
37855;SDS011;23694;43.274;26.924;2023-02-03T10:33:58;8.87;;;4.40;;
37855;SDS011;23694;43.274;26.924;2023-02-03T10:36:55;8.70;;;4.43;;
37855;SDS011;23694;43.274;26.924;2023-02-03T10:39:44;10.53;;;4.67;;
37855;SDS011;23694;43.274;26.924;2023-02-03T10:42:12;8.57;;;4.23;;
37855;SDS011;23694;43.274;26.924;2023-02-03T10:44:41;13.10;;;6.63;;
37855;SDS011;23694;43.274;26.924;2023-02-03T10:47:14;7.90;;;5.13;;
37855;SDS011;23694;43.274;26.924;2023-02-03T10:49:42;8.83;;;4.53;;
37855;SDS011;23694;43.274;26.924;2023-02-03T10:52:22;7.97;;;4.50;;
37855;SDS011;23694;43.274;26.924;2023-02-03T10:54:55;10.33;;;5.20;;
37855;SDS011;23694;43.274;26.924;2023-02-03T10:57:21;6.53;;;3.83;;
37855;SDS011;23694;43.274;26.924;2023-02-03T10:59:48;6.23;;;3.83;;
37855;SDS011;23694;43.274;26.924;2023-02-03T11:05:09;8.37;;;4.90;;
37855;SDS011;23694;43.274;26.924;2023-02-03T11:07:42;5.72;;;3.70;;
37855;SDS011;23694;43.274;26.924;2023-02-03T11:10:25;10.20;;;5.70;;
37855;SDS011;23694;43.274;26.924;2023-02-03T11:13:10;11.97;;;5.40;;
37855;SDS011;23694;43.274;26.924;2023-02-03T11:15:37;21.90;;;9.97;;
37855;SDS011;23694;43.274;26.924;2023-02-03T11:18:24;11.32;;;6.97;;
37855;SDS011;23694;43.274;26.924;2023-02-03T11:20:50;9.70;;;6.87;;
37855;SDS011;23694;43.274;26.924;2023-02-03T11:23:18;17.57;;;10.67;;
37855;SDS011;23694;43.274;26.924;2023-02-03T11:25:45;14.37;;;6.97;;
37855;SDS011;23694;43.274;26.924;2023-02-03T11:28:11;11.17;;;7.60;;
37855;SDS011;23694;43.274;26.924;2023-02-03T11:30:38;15.17;;;9.80;;
37855;SDS011;23694;43.274;26.924;2023-02-03T11:33:14;12.07;;;7.90;;
37855;SDS011;23694;43.274;26.924;2023-02-03T11:35:53;19.63;;;9.33;;
37855;SDS011;23694;43.274;26.924;2023-02-03T11:38:29;40.63;;;16.60;;
37855;SDS011;23694;43.274;26.924;2023-02-03T11:40:58;31.47;;;14.33;;
37855;SDS011;23694;43.274;26.924;2023-02-03T11:43:28;22.33;;;10.83;;
37855;SDS011;23694;43.274;26.924;2023-02-03T11:46:02;27.33;;;12.97;;
37855;SDS011;23694;43.274;26.924;2023-02-03T11:48:36;17.47;;;8.03;;
37855;SDS011;23694;43.274;26.924;2023-02-03T11:51:21;23.07;;;15.17;;
37855;SDS011;23694;43.274;26.924;2023-02-03T12:21:04;11.50;;;7.07;;
37855;SDS011;23694;43.274;26.924;2023-02-03T12:26:24;12.47;;;7.30;;
37855;SDS011;23694;43.274;26.924;2023-02-03T12:31:38;18.87;;;12.77;;
37855;SDS011;23694;43.274;26.924;2023-02-03T12:40:21;16.97;;;7.17;;
37855;SDS011;23694;43.274;26.924;2023-02-03T12:42:25;12.33;;;7.00;;
37855;SDS011;23694;43.274;26.924;2023-02-03T12:58:28;18.30;;;9.43;;
37855;SDS011;23694;43.274;26.924;2023-02-03T13:01:30;25.27;;;13.80;;
37855;SDS011;23694;43.274;26.924;2023-02-03T13:04:10;22.15;;;8.13;;
37855;SDS011;23694;43.274;26.924;2023-02-03T13:12:45;22.10;;;11.93;;
37855;SDS011;23694;43.274;26.924;2023-02-03T13:14:52;18.73;;;10.00;;
37855;SDS011;23694;43.274;26.924;2023-02-03T13:17:28;16.17;;;8.77;;
37855;SDS011;23694;43.274;26.924;2023-02-03T13:20:11;16.43;;;9.30;;
37855;SDS011;23694;43.274;26.924;2023-02-03T13:22:42;13.77;;;8.27;;
37855;SDS011;23694;43.274;26.924;2023-02-03T13:30:49;10.50;;;6.23;;
37855;SDS011;23694;43.274;26.924;2023-02-03T13:42:10;12.67;;;7.43;;
37855;SDS011;23694;43.274;26.924;2023-02-03T13:44:20;14.48;;;9.13;;
37855;SDS011;23694;43.274;26.924;2023-02-03T13:46:52;14.63;;;8.13;;
37855;SDS011;23694;43.274;26.924;2023-02-03T13:49:29;13.13;;;8.20;;
37855;SDS011;23694;43.274;26.924;2023-02-03T13:51:58;12.70;;;7.30;;
37855;SDS011;23694;43.274;26.924;2023-02-03T13:56:58;12.40;;;7.20;;
37855;SDS011;23694;43.274;26.924;2023-02-03T14:12:35;18.27;;;9.93;;
37855;SDS011;23694;43.274;26.924;2023-02-03T14:17:57;26.00;;;14.97;;
37855;SDS011;23694;43.274;26.924;2023-02-03T14:22:53;21.23;;;10.57;;
37855;SDS011;23694;43.274;26.924;2023-02-03T14:25:23;21.70;;;11.47;;
37855;SDS011;23694;43.274;26.924;2023-02-03T14:28:01;21.07;;;11.30;;
37855;SDS011;23694;43.274;26.924;2023-02-03T14:30:30;34.43;;;17.57;;
37855;SDS011;23694;43.274;26.924;2023-02-03T14:32:57;27.00;;;13.47;;
37855;SDS011;23694;43.274;26.924;2023-02-03T14:35:32;34.57;;;15.93;;
37855;SDS011;23694;43.274;26.924;2023-02-03T14:38:02;62.37;;;20.50;;
37855;SDS011;23694;43.274;26.924;2023-02-03T14:46:24;21.13;;;11.70;;
37855;SDS011;23694;43.274;26.924;2023-02-03T14:52:11;43.60;;;22.77;;
37855;SDS011;23694;43.274;26.924;2023-02-03T15:08:03;17.50;;;11.70;;
37855;SDS011;23694;43.274;26.924;2023-02-03T15:10:40;21.47;;;12.77;;
37855;SDS011;23694;43.274;26.924;2023-02-03T15:13:22;27.27;;;15.23;;
37855;SDS011;23694;43.274;26.924;2023-02-03T15:15:53;25.73;;;15.73;;
37855;SDS011;23694;43.274;26.924;2023-02-03T15:18:25;26.30;;;16.67;;
37855;SDS011;23694;43.274;26.924;2023-02-03T15:20:55;28.93;;;20.20;;
37855;SDS011;23694;43.274;26.924;2023-02-03T15:23:23;31.43;;;20.57;;
37855;SDS011;23694;43.274;26.924;2023-02-03T15:25:55;34.00;;;21.53;;
37855;SDS011;23694;43.274;26.924;2023-02-03T15:28:23;37.70;;;24.60;;
37855;SDS011;23694;43.274;26.924;2023-02-03T15:30:53;32.70;;;20.47;;
37855;SDS011;23694;43.274;26.924;2023-02-03T15:33:37;31.93;;;19.73;;
37855;SDS011;23694;43.274;26.924;2023-02-03T15:36:05;38.33;;;22.87;;
37855;SDS011;23694;43.274;26.924;2023-02-03T15:38:41;40.77;;;24.53;;
37855;SDS011;23694;43.274;26.924;2023-02-03T15:41:20;51.37;;;31.20;;
37855;SDS011;23694;43.274;26.924;2023-02-03T15:43:49;49.37;;;29.13;;
37855;SDS011;23694;43.274;26.924;2023-02-03T15:46:26;62.97;;;35.22;;
37855;SDS011;23694;43.274;26.924;2023-02-03T15:49:01;51.43;;;28.87;;
37855;SDS011;23694;43.274;26.924;2023-02-03T16:00:11;19.70;;;11.30;;
37855;SDS011;23694;43.274;26.924;2023-02-03T16:02:51;14.67;;;8.17;;
37855;SDS011;23694;43.274;26.924;2023-02-03T16:05:26;11.40;;;6.70;;
37855;SDS011;23694;43.274;26.924;2023-02-03T16:07:54;21.83;;;13.27;;
37855;SDS011;23694;43.274;26.924;2023-02-03T16:10:32;36.03;;;18.77;;
37855;SDS011;23694;43.274;26.924;2023-02-03T16:16:06;21.70;;;15.95;;
37855;SDS011;23694;43.274;26.924;2023-02-03T16:18:40;15.87;;;9.27;;
37855;SDS011;23694;43.274;26.924;2023-02-03T16:21:50;11.37;;;7.67;;
37855;SDS011;23694;43.274;26.924;2023-02-03T16:27:28;29.70;;;19.10;;
37855;SDS011;23694;43.274;26.924;2023-02-03T16:35:53;21.90;;;12.10;;
37855;SDS011;23694;43.274;26.924;2023-02-03T16:38:43;20.13;;;12.27;;
37855;SDS011;23694;43.274;26.924;2023-02-03T16:41:31;32.40;;;22.00;;
37855;SDS011;23694;43.274;26.924;2023-02-03T16:44:16;17.17;;;9.83;;
37855;SDS011;23694;43.274;26.924;2023-02-03T16:47:01;30.43;;;17.23;;
37855;SDS011;23694;43.274;26.924;2023-02-03T16:49:46;14.53;;;9.23;;
37855;SDS011;23694;43.274;26.924;2023-02-03T16:52:30;40.87;;;25.90;;
37855;SDS011;23694;43.274;26.924;2023-02-03T16:54:57;27.33;;;14.47;;
37855;SDS011;23694;43.274;26.924;2023-02-03T16:57:23;34.60;;;22.33;;
37855;SDS011;23694;43.274;26.924;2023-02-03T16:59:49;19.40;;;12.00;;
37855;SDS011;23694;43.274;26.924;2023-02-03T17:02:16;28.53;;;18.00;;
37855;SDS011;23694;43.274;26.924;2023-02-03T17:04:42;21.33;;;12.27;;
37855;SDS011;23694;43.274;26.924;2023-02-03T17:07:08;20.30;;;12.60;;
37855;SDS011;23694;43.274;26.924;2023-02-03T17:09:34;18.17;;;10.50;;
37855;SDS011;23694;43.274;26.924;2023-02-03T17:12:00;15.97;;;10.10;;
37855;SDS011;23694;43.274;26.924;2023-02-03T17:14:28;18.67;;;10.67;;
37855;SDS011;23694;43.274;26.924;2023-02-03T17:16:54;17.13;;;10.30;;
37855;SDS011;23694;43.274;26.924;2023-02-03T17:19:20;20.37;;;11.77;;
37855;SDS011;23694;43.274;26.924;2023-02-03T17:21:46;21.77;;;12.13;;
37855;SDS011;23694;43.274;26.924;2023-02-03T17:24:13;21.23;;;11.33;;
37855;SDS011;23694;43.274;26.924;2023-02-03T17:26:39;32.53;;;17.13;;
37855;SDS011;23694;43.274;26.924;2023-02-03T17:29:05;38.67;;;22.00;;
37855;SDS011;23694;43.274;26.924;2023-02-03T17:31:35;24.60;;;13.73;;
37855;SDS011;23694;43.274;26.924;2023-02-03T17:34:01;25.80;;;13.30;;
37855;SDS011;23694;43.274;26.924;2023-02-03T17:36:27;13.50;;;8.47;;
37855;SDS011;23694;43.274;26.924;2023-02-03T17:38:54;13.73;;;8.63;;
37855;SDS011;23694;43.274;26.924;2023-02-03T17:41:23;15.57;;;9.20;;
37855;SDS011;23694;43.274;26.924;2023-02-03T17:43:50;48.63;;;28.80;;